Flugplatz Paderborn Lippstadt

Bericht für EDLP

vom 24.10. um 02:50 UTC

Wind 14 kt aus 270° in Böen 26 kt

Sichtweite 3800 m

Sprühregen

bedeckt in 300 ft

Temperatur 12.0°C

Taupunkt 11.0°C

Luftfeuchtigkeit 94%

Luftdruck 1017 hPa

EDLP 240250Z 27014G26KT 220V310 3800 DZ OVC003 12/11 Q1017

Prognose für EDLP

vom 23.10. um 23:00 UTC

Zwischen 00:00 UTC und 06:00 UTC

Wind 15 kt aus 270° in Böen 25 kt

Sichtweite 3500 m

schwacher Sprühregen

feuchter Dunst

aufgebrochene Bewölkung in 500 ft


Zwischen 00:00 UTC und 09:00 UTC zeitweise

Sichtweite 2000 m

Sprühregen

bedeckt in 300 ft


Zwischen 06:00 und 09:00 UTC übergehend zu

Wind 10 kt aus 290°

Sichtweite 3500 m

schwacher Sprühregen

feuchter Dunst

aufgebrochene Bewölkung in 500 ft


Zwischen 09:00 UTC und 20:00 UTC zeitweise

Sichtweite 7000 m

aufgebrochene Bewölkung in 1500 ft

TAF EDLP 232300Z 2400/2424 27015G25KT 3500 -DZ BR BKN005 TEMPO 2400/2409 2000 DZ OVC003 BECMG 2406/2409 29010KT TEMPO 2409/2420 7000 BKN015
Impressum